sensor_id;sensor_type;location;lat;lon;timestamp;temperature;humidity
16040;DHT22;8124;48.634;8.120;2022-12-05T00:00:58;5.80;99.90
16040;DHT22;8124;48.634;8.120;2022-12-05T00:06:02;5.90;99.90
16040;DHT22;8124;48.634;8.120;2022-12-05T00:11:11;5.80;99.90
16040;DHT22;8124;48.634;8.120;2022-12-05T00:16:17;5.80;99.90
16040;DHT22;8124;48.634;8.120;2022-12-05T00:21:24;5.90;99.90
16040;DHT22;8124;48.634;8.120;2022-12-05T00:26:29;5.90;99.90
16040;DHT22;8124;48.634;8.120;2022-12-05T00:31:33;6.10;99.90
16040;DHT22;8124;48.634;8.120;2022-12-05T00:36:36;6.10;99.90
16040;DHT22;8124;48.634;8.120;2022-12-05T00:41:41;6.10;99.90
16040;DHT22;8124;48.634;8.120;2022-12-05T00:46:44;6.10;99.90
16040;DHT22;8124;48.634;8.120;2022-12-05T00:51:47;6.20;99.90
16040;DHT22;8124;48.634;8.120;2022-12-05T00:56:51;6.10;99.90
16040;DHT22;8124;48.634;8.120;2022-12-05T01:01:57;6.00;99.90
16040;DHT22;8124;48.634;8.120;2022-12-05T01:07:00;6.10;99.90
16040;DHT22;8124;48.634;8.120;2022-12-05T01:12:05;6.20;99.90
16040;DHT22;8124;48.634;8.120;2022-12-05T01:17:08;6.30;99.90
16040;DHT22;8124;48.634;8.120;2022-12-05T01:22:11;6.40;99.90
16040;DHT22;8124;48.634;8.120;2022-12-05T01:27:16;6.40;99.90
16040;DHT22;8124;48.634;8.120;2022-12-05T01:32:19;6.30;99.90
16040;DHT22;8124;48.634;8.120;2022-12-05T01:37:22;6.30;99.90
16040;DHT22;8124;48.634;8.120;2022-12-05T01:42:27;6.20;99.90
16040;DHT22;8124;48.634;8.120;2022-12-05T01:47:32;6.30;99.90
16040;DHT22;8124;48.634;8.120;2022-12-05T01:52:37;6.30;99.90
16040;DHT22;8124;48.634;8.120;2022-12-05T01:57:43;6.30;99.90
16040;DHT22;8124;48.634;8.120;2022-12-05T02:02:50;6.20;99.90
16040;DHT22;8124;48.634;8.120;2022-12-05T02:07:54;6.20;99.90
16040;DHT22;8124;48.634;8.120;2022-12-05T02:13:08;6.20;99.90
16040;DHT22;8124;48.634;8.120;2022-12-05T02:18:23;6.30;99.90
16040;DHT22;8124;48.634;8.120;2022-12-05T02:34:58;6.50;99.90
16040;DHT22;8124;48.634;8.120;2022-12-05T02:40:07;6.30;99.90
16040;DHT22;8124;48.634;8.120;2022-12-05T02:45:14;6.30;99.90
16040;DHT22;8124;48.634;8.120;2022-12-05T02:50:21;6.40;99.90
16040;DHT22;8124;48.634;8.120;2022-12-05T02:55:26;6.40;99.90
16040;DHT22;8124;48.634;8.120;2022-12-05T03:00:30;6.30;99.90
16040;DHT22;8124;48.634;8.120;2022-12-05T03:05:39;6.40;99.90
16040;DHT22;8124;48.634;8.120;2022-12-05T03:10:44;6.50;99.90
16040;DHT22;8124;48.634;8.120;2022-12-05T03:15:52;6.50;99.90
16040;DHT22;8124;48.634;8.120;2022-12-05T03:20:59;6.50;99.90
16040;DHT22;8124;48.634;8.120;2022-12-05T03:26:08;6.60;99.90
16040;DHT22;8124;48.634;8.120;2022-12-05T03:31:20;6.60;99.90
16040;DHT22;8124;48.634;8.120;2022-12-05T03:36:36;6.60;99.90
16040;DHT22;8124;48.634;8.120;2022-12-05T03:41:43;6.50;99.90
16040;DHT22;8124;48.634;8.120;2022-12-05T03:46:53;6.50;99.90
16040;DHT22;8124;48.634;8.120;2022-12-05T03:52:02;6.40;99.90
16040;DHT22;8124;48.634;8.120;2022-12-05T03:57:12;6.20;99.90
16040;DHT22;8124;48.634;8.120;2022-12-05T04:02:21;5.80;99.90
16040;DHT22;8124;48.634;8.120;2022-12-05T04:07:30;5.90;99.90
16040;DHT22;8124;48.634;8.120;2022-12-05T04:12:35;6.10;99.90
16040;DHT22;8124;48.634;8.120;2022-12-05T04:17:43;6.20;99.90
16040;DHT22;8124;48.634;8.120;2022-12-05T04:22:55;5.90;99.90
16040;DHT22;8124;48.634;8.120;2022-12-05T04:28:09;5.90;99.90
16040;DHT22;8124;48.634;8.120;2022-12-05T04:33:26;6.00;99.90
16040;DHT22;8124;48.634;8.120;2022-12-05T04:38:38;6.10;99.90
16040;DHT22;8124;48.634;8.120;2022-12-05T04:43:44;6.30;99.90
16040;DHT22;8124;48.634;8.120;2022-12-05T04:48:51;6.40;99.90
16040;DHT22;8124;48.634;8.120;2022-12-05T04:54:01;6.30;99.90
16040;DHT22;8124;48.634;8.120;2022-12-05T04:59:06;6.40;99.90
16040;DHT22;8124;48.634;8.120;2022-12-05T05:04:13;6.20;99.90
16040;DHT22;8124;48.634;8.120;2022-12-05T05:09:19;6.20;99.90
16040;DHT22;8124;48.634;8.120;2022-12-05T05:14:23;6.30;99.90
16040;DHT22;8124;48.634;8.120;2022-12-05T05:19:26;6.30;99.90
16040;DHT22;8124;48.634;8.120;2022-12-05T05:24:31;6.20;99.90
16040;DHT22;8124;48.634;8.120;2022-12-05T05:29:34;6.20;99.90
16040;DHT22;8124;48.634;8.120;2022-12-05T05:34:37;5.90;99.90
16040;DHT22;8124;48.634;8.120;2022-12-05T05:39:44;5.80;99.90
16040;DHT22;8124;48.634;8.120;2022-12-05T05:44:50;5.80;99.90
16040;DHT22;8124;48.634;8.120;2022-12-05T05:49:56;5.90;99.90
16040;DHT22;8124;48.634;8.120;2022-12-05T05:55:02;5.80;99.90
16040;DHT22;8124;48.634;8.120;2022-12-05T06:00:07;6.00;99.90
16040;DHT22;8124;48.634;8.120;2022-12-05T06:05:10;6.10;99.90
16040;DHT22;8124;48.634;8.120;2022-12-05T06:10:22;6.20;99.90
16040;DHT22;8124;48.634;8.120;2022-12-05T06:15:25;6.30;99.90
16040;DHT22;8124;48.634;8.120;2022-12-05T06:20:28;6.30;99.90
16040;DHT22;8124;48.634;8.120;2022-12-05T06:25:33;6.50;99.90
16040;DHT22;8124;48.634;8.120;2022-12-05T06:30:37;6.50;99.90
16040;DHT22;8124;48.634;8.120;2022-12-05T06:35:40;6.30;99.90
16040;DHT22;8124;48.634;8.120;2022-12-05T06:40:45;6.30;99.90
16040;DHT22;8124;48.634;8.120;2022-12-05T06:45:48;6.30;99.90
16040;DHT22;8124;48.634;8.120;2022-12-05T06:50:52;6.40;99.90
16040;DHT22;8124;48.634;8.120;2022-12-05T06:55:58;6.50;99.90
16040;DHT22;8124;48.634;8.120;2022-12-05T07:01:02;6.50;99.90
16040;DHT22;8124;48.634;8.120;2022-12-05T07:06:23;6.30;99.90
16040;DHT22;8124;48.634;8.120;2022-12-05T07:11:28;6.30;99.90
16040;DHT22;8124;48.634;8.120;2022-12-05T07:16:31;6.40;99.90
16040;DHT22;8124;48.634;8.120;2022-12-05T07:21:34;6.50;99.90
16040;DHT22;8124;48.634;8.120;2022-12-05T07:26:40;6.60;99.90
16040;DHT22;8124;48.634;8.120;2022-12-05T07:32:03;6.50;99.90
16040;DHT22;8124;48.634;8.120;2022-12-05T07:37:13;6.30;99.90
16040;DHT22;8124;48.634;8.120;2022-12-05T07:42:20;6.20;99.90
16040;DHT22;8124;48.634;8.120;2022-12-05T07:47:25;6.10;99.90
16040;DHT22;8124;48.634;8.120;2022-12-05T07:52:40;6.10;99.90
16040;DHT22;8124;48.634;8.120;2022-12-05T07:57:52;6.20;99.90
16040;DHT22;8124;48.634;8.120;2022-12-05T08:02:55;6.40;99.90
16040;DHT22;8124;48.634;8.120;2022-12-05T08:07:59;6.30;99.90
16040;DHT22;8124;48.634;8.120;2022-12-05T08:13:03;6.40;99.90
16040;DHT22;8124;48.634;8.120;2022-12-05T08:18:08;6.40;99.90
16040;DHT22;8124;48.634;8.120;2022-12-05T08:23:11;6.50;99.90
16040;DHT22;8124;48.634;8.120;2022-12-05T08:28:16;6.60;99.90
16040;DHT22;8124;48.634;8.120;2022-12-05T08:33:19;6.60;99.90
16040;DHT22;8124;48.634;8.120;2022-12-05T08:38:22;6.60;99.90
16040;DHT22;8124;48.634;8.120;2022-12-05T08:43:27;6.80;99.90
16040;DHT22;8124;48.634;8.120;2022-12-05T08:48:30;6.90;99.90
16040;DHT22;8124;48.634;8.120;2022-12-05T08:53:34;6.90;99.90
16040;DHT22;8124;48.634;8.120;2022-12-05T08:58:46;6.70;99.90
16040;DHT22;8124;48.634;8.120;2022-12-05T09:03:49;6.70;99.90
16040;DHT22;8124;48.634;8.120;2022-12-05T09:08:54;6.90;99.90
16040;DHT22;8124;48.634;8.120;2022-12-05T09:14:00;6.90;99.90
16040;DHT22;8124;48.634;8.120;2022-12-05T09:19:04;7.10;99.90
16040;DHT22;8124;48.634;8.120;2022-12-05T09:24:09;7.20;99.90
16040;DHT22;8124;48.634;8.120;2022-12-05T09:29:18;7.20;99.90
16040;DHT22;8124;48.634;8.120;2022-12-05T09:34:21;7.20;99.90
16040;DHT22;8124;48.634;8.120;2022-12-05T09:39:27;7.40;99.90
16040;DHT22;8124;48.634;8.120;2022-12-05T09:44:42;7.10;99.90
16040;DHT22;8124;48.634;8.120;2022-12-05T09:49:49;7.20;99.90
16040;DHT22;8124;48.634;8.120;2022-12-05T09:54:53;7.20;99.90
16040;DHT22;8124;48.634;8.120;2022-12-05T09:59:59;7.10;99.90
16040;DHT22;8124;48.634;8.120;2022-12-05T10:05:10;7.10;99.90
16040;DHT22;8124;48.634;8.120;2022-12-05T10:10:27;7.00;99.90
16040;DHT22;8124;48.634;8.120;2022-12-05T10:15:36;7.00;99.90
16040;DHT22;8124;48.634;8.120;2022-12-05T10:20:46;7.10;99.90
16040;DHT22;8124;48.634;8.120;2022-12-05T10:25:55;7.20;99.90
16040;DHT22;8124;48.634;8.120;2022-12-05T10:31:04;7.60;99.90
16040;DHT22;8124;48.634;8.120;2022-12-05T10:36:11;7.80;99.90
16040;DHT22;8124;48.634;8.120;2022-12-05T10:41:23;8.00;99.90
16040;DHT22;8124;48.634;8.120;2022-12-05T10:46:27;8.00;99.90
16040;DHT22;8124;48.634;8.120;2022-12-05T10:51:32;8.00;99.90
16040;DHT22;8124;48.634;8.120;2022-12-05T10:56:43;8.00;99.90
16040;DHT22;8124;48.634;8.120;2022-12-05T11:01:50;8.10;99.90
16040;DHT22;8124;48.634;8.120;2022-12-05T11:06:57;8.20;99.90
16040;DHT22;8124;48.634;8.120;2022-12-05T11:12:15;8.30;99.90
16040;DHT22;8124;48.634;8.120;2022-12-05T11:17:25;8.60;99.90
16040;DHT22;8124;48.634;8.120;2022-12-05T11:22:33;8.50;99.90
16040;DHT22;8124;48.634;8.120;2022-12-05T11:27:36;8.70;99.90
16040;DHT22;8124;48.634;8.120;2022-12-05T11:32:41;8.60;99.90
16040;DHT22;8124;48.634;8.120;2022-12-05T11:37:46;8.60;99.90
16040;DHT22;8124;48.634;8.120;2022-12-05T11:43:03;8.50;99.90
16040;DHT22;8124;48.634;8.120;2022-12-05T11:48:35;8.60;99.90
16040;DHT22;8124;48.634;8.120;2022-12-05T12:00:04;8.50;99.90
16040;DHT22;8124;48.634;8.120;2022-12-05T12:05:17;8.70;99.90
16040;DHT22;8124;48.634;8.120;2022-12-05T12:10:27;8.80;99.90
16040;DHT22;8124;48.634;8.120;2022-12-05T12:15:46;9.00;99.90
16040;DHT22;8124;48.634;8.120;2022-12-05T12:21:03;8.90;99.90
16040;DHT22;8124;48.634;8.120;2022-12-05T12:26:13;8.80;99.90
16040;DHT22;8124;48.634;8.120;2022-12-05T12:31:33;8.90;99.90
16040;DHT22;8124;48.634;8.120;2022-12-05T12:36:44;8.70;99.90
16040;DHT22;8124;48.634;8.120;2022-12-05T12:41:57;8.60;99.90
16040;DHT22;8124;48.634;8.120;2022-12-05T12:47:11;8.70;99.90
16040;DHT22;8124;48.634;8.120;2022-12-05T12:52:21;8.60;99.90
16040;DHT22;8124;48.634;8.120;2022-12-05T12:57:31;8.50;99.90
16040;DHT22;8124;48.634;8.120;2022-12-05T13:02:41;8.80;99.90
16040;DHT22;8124;48.634;8.120;2022-12-05T13:08:09;8.80;99.90
16040;DHT22;8124;48.634;8.120;2022-12-05T13:13:17;9.00;99.90
16040;DHT22;8124;48.634;8.120;2022-12-05T13:18:22;8.90;99.90
16040;DHT22;8124;48.634;8.120;2022-12-05T13:23:28;9.00;99.90
16040;DHT22;8124;48.634;8.120;2022-12-05T13:28:36;8.80;99.90
16040;DHT22;8124;48.634;8.120;2022-12-05T13:33:44;8.80;99.90
16040;DHT22;8124;48.634;8.120;2022-12-05T13:38:55;8.80;99.90
16040;DHT22;8124;48.634;8.120;2022-12-05T13:44:28;8.80;99.90
16040;DHT22;8124;48.634;8.120;2022-12-05T13:49:40;8.90;99.90
16040;DHT22;8124;48.634;8.120;2022-12-05T13:54:53;8.90;99.90
16040;DHT22;8124;48.634;8.120;2022-12-05T14:00:02;8.80;99.90
16040;DHT22;8124;48.634;8.120;2022-12-05T14:05:34;8.90;99.90
16040;DHT22;8124;48.634;8.120;2022-12-05T14:11:09;9.00;99.90
16040;DHT22;8124;48.634;8.120;2022-12-05T14:16:46;8.90;99.90
16040;DHT22;8124;48.634;8.120;2022-12-05T14:21:57;9.00;99.90
16040;DHT22;8124;48.634;8.120;2022-12-05T14:27:06;9.00;99.90
16040;DHT22;8124;48.634;8.120;2022-12-05T14:32:21;8.90;99.90
16040;DHT22;8124;48.634;8.120;2022-12-05T14:37:36;8.90;99.90
16040;DHT22;8124;48.634;8.120;2022-12-05T14:42:42;8.90;99.90
16040;DHT22;8124;48.634;8.120;2022-12-05T14:47:50;9.20;99.90
16040;DHT22;8124;48.634;8.120;2022-12-05T14:53:26;9.10;99.90
16040;DHT22;8124;48.634;8.120;2022-12-05T14:58:38;9.00;99.90
16040;DHT22;8124;48.634;8.120;2022-12-05T15:04:14;9.00;99.90
16040;DHT22;8124;48.634;8.120;2022-12-05T15:09:42;9.10;99.90
16040;DHT22;8124;48.634;8.120;2022-12-05T15:15:03;9.20;99.90
16040;DHT22;8124;48.634;8.120;2022-12-05T15:20:33;9.20;99.90
16040;DHT22;8124;48.634;8.120;2022-12-05T15:26:01;9.50;99.90
16040;DHT22;8124;48.634;8.120;2022-12-05T15:31:27;9.30;99.90
16040;DHT22;8124;48.634;8.120;2022-12-05T15:36:37;9.20;99.90
16040;DHT22;8124;48.634;8.120;2022-12-05T15:41:56;8.80;99.90
16040;DHT22;8124;48.634;8.120;2022-12-05T15:53:19;8.70;99.90
16040;DHT22;8124;48.634;8.120;2022-12-05T15:58:28;8.70;99.90
16040;DHT22;8124;48.634;8.120;2022-12-05T16:03:38;8.50;99.90
16040;DHT22;8124;48.634;8.120;2022-12-05T16:08:44;8.40;99.90
16040;DHT22;8124;48.634;8.120;2022-12-05T16:13:50;8.30;99.90
16040;DHT22;8124;48.634;8.120;2022-12-05T16:18:58;8.20;99.90
16040;DHT22;8124;48.634;8.120;2022-12-05T16:24:06;8.30;99.90
16040;DHT22;8124;48.634;8.120;2022-12-05T16:29:25;8.50;99.90
16040;DHT22;8124;48.634;8.120;2022-12-05T16:34:32;8.50;99.90
16040;DHT22;8124;48.634;8.120;2022-12-05T16:39:37;8.80;99.90
16040;DHT22;8124;48.634;8.120;2022-12-05T16:44:59;9.00;99.90
16040;DHT22;8124;48.634;8.120;2022-12-05T16:50:20;8.90;99.90
16040;DHT22;8124;48.634;8.120;2022-12-05T16:55:26;9.10;99.90
16040;DHT22;8124;48.634;8.120;2022-12-05T17:00:35;9.00;99.90
16040;DHT22;8124;48.634;8.120;2022-12-05T17:05:38;9.10;99.90
16040;DHT22;8124;48.634;8.120;2022-12-05T17:10:42;8.90;99.90
16040;DHT22;8124;48.634;8.120;2022-12-05T17:15:45;9.00;99.90
16040;DHT22;8124;48.634;8.120;2022-12-05T17:20:50;9.00;99.90
16040;DHT22;8124;48.634;8.120;2022-12-05T17:26:01;8.70;99.90
16040;DHT22;8124;48.634;8.120;2022-12-05T17:31:08;8.70;99.90
16040;DHT22;8124;48.634;8.120;2022-12-05T17:36:12;8.80;99.90
16040;DHT22;8124;48.634;8.120;2022-12-05T17:41:18;8.80;99.90
16040;DHT22;8124;48.634;8.120;2022-12-05T17:46:22;8.80;99.90
16040;DHT22;8124;48.634;8.120;2022-12-05T17:51:26;8.80;99.90
16040;DHT22;8124;48.634;8.120;2022-12-05T17:56:39;8.80;99.90
16040;DHT22;8124;48.634;8.120;2022-12-05T18:01:41;8.70;99.90
16040;DHT22;8124;48.634;8.120;2022-12-05T18:06:45;8.80;99.90
16040;DHT22;8124;48.634;8.120;2022-12-05T18:11:50;8.80;99.90
16040;DHT22;8124;48.634;8.120;2022-12-05T18:16:54;8.80;99.90
16040;DHT22;8124;48.634;8.120;2022-12-05T18:21:57;8.80;99.90
16040;DHT22;8124;48.634;8.120;2022-12-05T18:27:01;8.70;99.90
16040;DHT22;8124;48.634;8.120;2022-12-05T18:32:05;8.70;99.90
16040;DHT22;8124;48.634;8.120;2022-12-05T18:37:09;8.60;99.90
16040;DHT22;8124;48.634;8.120;2022-12-05T18:42:14;8.50;99.90
16040;DHT22;8124;48.634;8.120;2022-12-05T18:47:18;8.60;99.90
16040;DHT22;8124;48.634;8.120;2022-12-05T18:52:21;8.60;99.90
16040;DHT22;8124;48.634;8.120;2022-12-05T18:57:26;8.60;99.90
16040;DHT22;8124;48.634;8.120;2022-12-05T19:02:29;8.50;99.90
16040;DHT22;8124;48.634;8.120;2022-12-05T19:07:35;8.60;99.90
16040;DHT22;8124;48.634;8.120;2022-12-05T19:12:41;8.60;99.90
16040;DHT22;8124;48.634;8.120;2022-12-05T19:17:44;8.60;99.90
16040;DHT22;8124;48.634;8.120;2022-12-05T19:22:47;8.60;99.90
16040;DHT22;8124;48.634;8.120;2022-12-05T19:27:51;8.60;99.90
16040;DHT22;8124;48.634;8.120;2022-12-05T19:32:55;8.60;99.90
16040;DHT22;8124;48.634;8.120;2022-12-05T19:37:58;8.50;99.90
16040;DHT22;8124;48.634;8.120;2022-12-05T19:43:02;8.50;99.90
16040;DHT22;8124;48.634;8.120;2022-12-05T19:48:09;8.50;99.90
16040;DHT22;8124;48.634;8.120;2022-12-05T19:53:11;8.40;99.90
16040;DHT22;8124;48.634;8.120;2022-12-05T19:58:19;8.40;99.90
16040;DHT22;8124;48.634;8.120;2022-12-05T20:03:22;8.40;99.90
16040;DHT22;8124;48.634;8.120;2022-12-05T20:08:25;8.40;99.90
16040;DHT22;8124;48.634;8.120;2022-12-05T20:13:29;8.30;99.90
16040;DHT22;8124;48.634;8.120;2022-12-05T20:18:56;8.40;99.90
16040;DHT22;8124;48.634;8.120;2022-12-05T20:24:02;8.30;99.90
16040;DHT22;8124;48.634;8.120;2022-12-05T20:29:07;8.20;99.90
16040;DHT22;8124;48.634;8.120;2022-12-05T20:34:11;8.30;99.90
16040;DHT22;8124;48.634;8.120;2022-12-05T20:39:17;8.30;99.90
16040;DHT22;8124;48.634;8.120;2022-12-05T20:44:22;8.30;99.90
16040;DHT22;8124;48.634;8.120;2022-12-05T20:49:25;8.30;99.90
16040;DHT22;8124;48.634;8.120;2022-12-05T20:54:28;8.30;99.90
16040;DHT22;8124;48.634;8.120;2022-12-05T20:59:32;8.40;99.90
16040;DHT22;8124;48.634;8.120;2022-12-05T21:04:35;8.40;99.90
16040;DHT22;8124;48.634;8.120;2022-12-05T21:09:41;8.50;99.90
16040;DHT22;8124;48.634;8.120;2022-12-05T21:14:48;8.40;99.90
16040;DHT22;8124;48.634;8.120;2022-12-05T21:19:53;8.30;99.90
16040;DHT22;8124;48.634;8.120;2022-12-05T21:24:56;8.20;99.90
16040;DHT22;8124;48.634;8.120;2022-12-05T21:30:00;8.30;99.90
16040;DHT22;8124;48.634;8.120;2022-12-05T21:35:03;8.30;99.90
16040;DHT22;8124;48.634;8.120;2022-12-05T21:40:08;8.30;99.90
16040;DHT22;8124;48.634;8.120;2022-12-05T21:45:13;8.20;99.90
16040;DHT22;8124;48.634;8.120;2022-12-05T21:50:20;8.20;99.90
16040;DHT22;8124;48.634;8.120;2022-12-05T21:55:23;8.20;99.90
16040;DHT22;8124;48.634;8.120;2022-12-05T22:00:27;8.20;99.90
16040;DHT22;8124;48.634;8.120;2022-12-05T22:05:30;8.10;99.90
16040;DHT22;8124;48.634;8.120;2022-12-05T22:10:33;8.10;99.90
16040;DHT22;8124;48.634;8.120;2022-12-05T22:15:38;8.20;99.90
16040;DHT22;8124;48.634;8.120;2022-12-05T22:20:41;8.20;99.90
16040;DHT22;8124;48.634;8.120;2022-12-05T22:25:54;8.20;99.90
16040;DHT22;8124;48.634;8.120;2022-12-05T22:31:01;8.30;99.90
16040;DHT22;8124;48.634;8.120;2022-12-05T22:36:06;8.20;99.90
16040;DHT22;8124;48.634;8.120;2022-12-05T22:41:11;8.00;99.90
16040;DHT22;8124;48.634;8.120;2022-12-05T22:46:17;7.90;99.90
16040;DHT22;8124;48.634;8.120;2022-12-05T22:51:21;7.90;99.90
16040;DHT22;8124;48.634;8.120;2022-12-05T22:56:25;8.00;99.90
16040;DHT22;8124;48.634;8.120;2022-12-05T23:01:31;7.90;99.90
16040;DHT22;8124;48.634;8.120;2022-12-05T23:06:35;7.90;99.90
16040;DHT22;8124;48.634;8.120;2022-12-05T23:11:38;7.80;99.90
16040;DHT22;8124;48.634;8.120;2022-12-05T23:16:43;8.00;99.90
16040;DHT22;8124;48.634;8.120;2022-12-05T23:21:46;8.00;99.90
16040;DHT22;8124;48.634;8.120;2022-12-05T23:26:49;7.90;99.90
16040;DHT22;8124;48.634;8.120;2022-12-05T23:31:53;7.60;99.90
16040;DHT22;8124;48.634;8.120;2022-12-05T23:36:56;7.50;99.90
16040;DHT22;8124;48.634;8.120;2022-12-05T23:41:59;7.60;99.90
16040;DHT22;8124;48.634;8.120;2022-12-05T23:47:09;7.70;99.90
16040;DHT22;8124;48.634;8.120;2022-12-05T23:52:12;7.70;99.90
16040;DHT22;8124;48.634;8.120;2022-12-05T23:57:15;7.80;99.90
